Time;durP1;ratioP1;P1;durP2;ratioP2;P2;SDS_P1;SDS_P2;PMS_P1;PMS_P2;Temp;Humidity;BMP_temperature;BMP_pressure;BME280_temperature;BME280_humidity;BME280_pressure;Samples;Min_cycle;Max_cycle;Signal;HPM_P1;HPM_P2
2023/06/29 00:00:28;;;;;;;12.70;11.30;;;21.50;85.70;;;24.13;57.55;101563.19;5053410;28;20210;-57
2023/06/29 00:02:55;;;;;;;15.63;13.07;;;21.50;86.00;;;24.09;57.83;101571.97;5053088;28;20236;-60
2023/06/29 00:05:22;;;;;;;15.10;13.53;;;21.50;86.20;;;24.03;57.57;101567.56;5053612;28;20573;-58
2023/06/29 00:07:49;;;;;;;14.20;12.27;;;21.40;86.10;;;24.01;57.80;101559.72;5053395;28;20274;-61
2023/06/29 00:10:17;;;;;;;14.50;13.00;;;21.40;85.90;;;24.04;57.80;101559.22;5053624;28;20611;-59
2023/06/29 00:12:45;;;;;;;14.97;13.10;;;21.40;86.30;;;24.02;58.07;101561.34;5052944;28;20213;-61
2023/06/29 00:15:12;;;;;;;14.73;12.97;;;21.40;86.50;;;24.00;58.04;101563.47;5050629;28;20758;-60
2023/06/29 00:17:39;;;;;;;12.40;10.73;;;21.40;86.60;;;23.99;57.82;101566.38;5053288;28;20617;-60
2023/06/29 00:20:10;;;;;;;15.20;12.77;;;21.40;86.50;;;24.00;57.89;101557.28;5053494;28;20662;-59
2023/06/29 00:22:40;;;;;;;14.53;13.03;;;21.40;86.80;;;23.97;57.97;101558.56;5053870;28;20642;-64
2023/06/29 00:25:08;;;;;;;14.27;12.33;;;21.40;86.80;;;23.98;58.12;101549.47;5053272;28;20214;-60
2023/06/29 00:27:36;;;;;;;13.53;11.03;;;21.40;87.00;;;23.95;58.43;101554.50;5043347;28;20213;-58
2023/06/29 00:30:06;;;;;;;15.13;13.33;;;21.40;86.90;;;23.92;58.56;101558.47;5033710;28;20606;-60
2023/06/29 00:32:33;;;;;;;13.77;12.37;;;21.40;87.00;;;23.87;58.35;101558.38;5048768;28;20645;-58
2023/06/29 00:35:00;;;;;;;13.43;11.83;;;21.30;86.80;;;23.89;58.11;101555.47;5051733;28;20214;-61
2023/06/29 00:37:27;;;;;;;13.43;12.10;;;21.30;86.80;;;23.93;58.30;101554.75;5033522;28;20218;-57
2023/06/29 00:39:54;;;;;;;12.50;10.47;;;21.30;86.90;;;24.00;57.79;101552.72;5033091;28;20644;-59
2023/06/29 00:42:21;;;;;;;12.63;10.37;;;21.30;86.90;;;24.07;57.66;101552.59;5052888;28;20216;-58
2023/06/29 00:44:48;;;;;;;12.57;11.27;;;21.30;86.90;;;24.11;57.87;101549.16;5052901;28;20216;-60
2023/06/29 00:47:17;;;;;;;12.53;11.13;;;21.40;86.90;;;24.19;57.50;101543.38;5052726;28;20236;-57
2023/06/29 00:49:44;;;;;;;12.97;10.50;;;21.40;86.90;;;24.24;57.26;101537.25;5053318;28;20718;-59
2023/06/29 00:52:11;;;;;;;9.37;8.47;;;21.40;86.70;;;24.30;56.81;101541.66;5052950;28;20288;-59
2023/06/29 00:54:38;;;;;;;13.07;11.20;;;21.50;86.80;;;24.37;57.05;101536.91;5052479;28;20198;-60
2023/06/29 00:57:08;;;;;;;13.63;11.80;;;21.50;86.50;;;24.42;56.54;101536.19;5052873;28;20297;-58
2023/06/29 00:59:36;;;;;;;14.50;11.50;;;21.60;86.50;;;24.42;56.98;101538.88;5052901;28;20256;-58
2023/06/29 01:02:03;;;;;;;10.80;9.30;;;21.60;86.20;;;24.41;56.50;101526.50;5052056;28;20594;-59
2023/06/29 01:04:33;;;;;;;13.03;10.90;;;21.60;86.00;;;24.43;56.60;101530.56;5049174;28;20194;-60
2023/06/29 01:07:09;;;;;;;14.93;13.10;;;21.70;86.00;;;24.40;56.67;101524.84;5054204;28;20194;-60
2023/06/29 01:09:37;;;;;;;15.93;12.17;;;21.70;86.10;;;24.38;56.64;101529.66;5056699;28;20208;-60
2023/06/29 01:12:06;;;;;;;13.50;12.07;;;21.70;86.00;;;24.37;56.63;101522.63;5056646;28;20200;-59
2023/06/29 01:14:35;;;;;;;15.30;12.83;;;21.60;85.80;;;24.32;57.18;101527.97;5055686;28;20562;-60
2023/06/29 01:17:03;;;;;;;14.60;13.13;;;21.60;86.20;;;24.25;57.10;101527.31;5056663;28;20236;-58
2023/06/29 01:19:33;;;;;;;14.63;12.47;;;21.60;86.30;;;24.20;56.95;101526.16;5045449;28;20277;-60
2023/06/29 01:22:07;;;;;;;16.30;12.20;;;21.60;86.40;;;24.18;57.06;101522.91;5036260;28;20203;-58
2023/06/29 01:24:38;;;;;;;14.47;12.90;;;21.50;86.40;;;24.17;57.59;101520.47;5036057;28;20229;-60
2023/06/29 01:27:07;;;;;;;13.27;11.53;;;21.50;86.70;;;24.15;57.82;101523.38;5041338;28;20193;-59
2023/06/29 01:29:35;;;;;;;16.13;13.73;;;21.50;86.70;;;24.14;57.64;101521.78;5056486;28;20605;-58
2023/06/29 01:32:03;;;;;;;15.07;12.77;;;21.50;86.80;;;24.14;58.03;101519.09;5049098;28;20230;-58
2023/06/29 01:34:31;;;;;;;16.20;13.00;;;21.50;87.10;;;24.12;58.01;101518.50;5036262;28;20652;-60
2023/06/29 01:37:08;;;;;;;15.93;13.80;;;21.50;87.20;;;24.09;58.04;101520.88;5035948;28;20191;-60
2023/06/29 01:39:44;;;;;;;15.30;13.27;;;21.50;87.30;;;24.07;58.14;101514.91;5035939;28;20233;-60
2023/06/29 01:42:12;;;;;;;12.20;10.80;;;21.50;87.40;;;24.10;57.81;101515.22;5054594;28;20674;-60
2023/06/29 01:44:40;;;;;;;16.43;13.47;;;21.50;87.30;;;24.13;58.17;101512.06;5055097;28;20319;-60
2023/06/29 01:47:10;;;;;;;11.80;10.60;;;21.50;87.30;;;24.15;57.83;101512.63;5055621;28;20682;-58
2023/06/29 01:49:38;;;;;;;17.67;14.33;;;21.50;87.20;;;24.17;57.44;101507.00;5055661;28;20301;-57
2023/06/29 01:52:07;;;;;;;17.57;13.97;;;21.50;87.20;;;24.14;58.06;101504.81;5042567;28;20229;-59
2023/06/29 01:54:34;;;;;;;16.57;13.53;;;21.50;87.10;;;24.09;57.62;101504.72;5035169;28;20186;-59
2023/06/29 01:57:04;;;;;;;17.93;13.70;;;21.50;86.80;;;24.05;57.65;101500.88;5037620;28;20193;-59
2023/06/29 01:59:31;;;;;;;18.30;13.17;;;21.50;86.80;;;24.02;57.63;101495.97;5055892;28;20232;-59
2023/06/29 02:01:58;;;;;;;16.47;13.37;;;21.40;86.60;;;23.98;57.92;101501.03;5056012;28;20218;-58
2023/06/29 02:04:25;;;;;;;15.73;13.10;;;21.40;86.70;;;23.95;57.90;101500.69;5055487;28;20674;-60
2023/06/29 02:06:52;;;;;;;13.83;12.03;;;21.40;86.80;;;23.90;57.96;101487.97;5054766;28;20186;-58
2023/06/29 02:09:19;;;;;;;13.50;12.10;;;21.40;86.80;;;23.90;58.24;101498.75;5054378;28;20197;-59
2023/06/29 02:11:46;;;;;;;12.80;11.47;;;21.30;86.90;;;23.86;58.36;101492.22;5055422;28;20277;-58
2023/06/29 02:14:18;;;;;;;18.00;12.90;;;21.30;87.10;;;23.85;58.16;101492.44;5054792;28;20274;-56
2023/06/29 02:16:47;;;;;;;18.50;13.70;;;21.30;87.30;;;23.83;57.96;101498.09;5055533;28;20638;-58
2023/06/29 02:19:14;;;;;;;14.47;12.40;;;21.30;87.60;;;23.81;58.01;101489.44;5055050;28;20257;-57
2023/06/29 02:21:41;;;;;;;14.10;12.63;;;21.20;87.50;;;23.81;58.26;101494.81;5055170;28;20313;-60
2023/06/29 02:24:07;;;;;;;14.53;12.60;;;21.20;87.70;;;23.82;58.54;101485.69;5054098;28;20204;-58
2023/06/29 02:26:34;;;;;;;15.17;12.20;;;21.20;87.60;;;23.85;58.39;101484.38;5054205;28;20213;-58
2023/06/29 02:29:01;;;;;;;15.50;10.93;;;21.20;87.80;;;23.87;58.32;101487.63;5041246;28;20202;-59
2023/06/29 02:31:30;;;;;;;16.07;13.07;;;21.20;87.80;;;23.89;57.78;101489.03;5034437;28;20716;-58
2023/06/29 02:33:57;;;;;;;12.53;10.30;;;21.20;87.90;;;23.92;58.13;101483.16;5034479;28;20682;-60
2023/06/29 02:36:24;;;;;;;12.90;11.73;;;21.20;87.70;;;23.92;58.26;101485.03;5034749;28;20206;-59
2023/06/29 02:38:51;;;;;;;15.57;12.00;;;21.30;87.70;;;23.87;57.92;101483.06;5046649;28;20285;-60
2023/06/29 02:41:18;;;;;;;13.80;11.30;;;21.20;87.70;;;23.83;57.95;101478.44;5054933;28;20277;-59
2023/06/29 02:43:44;;;;;;;14.40;11.30;;;21.20;87.60;;;23.80;58.12;101484.28;5054478;28;20198;-58
2023/06/29 02:46:11;;;;;;;15.23;10.83;;;21.20;87.50;;;23.84;58.39;101478.22;5054717;28;20213;-58
2023/06/29 02:48:40;;;;;;;16.30;11.83;;;21.20;87.50;;;23.87;57.82;101469.63;5054840;28;20194;-59
2023/06/29 02:51:07;;;;;;;13.60;10.77;;;21.20;87.60;;;23.87;58.26;101472.31;5054547;28;20500;-58
2023/06/29 02:53:34;;;;;;;13.87;11.70;;;21.20;87.40;;;23.88;58.08;101471.28;5053259;28;20244;-58
2023/06/29 02:56:01;;;;;;;13.60;11.77;;;21.30;87.50;;;23.85;58.07;101477.13;5054251;28;20206;-59
2023/06/29 02:58:28;;;;;;;13.43;11.40;;;21.30;87.40;;;23.88;57.98;101481.22;5054601;28;20228;-58
2023/06/29 03:00:55;;;;;;;15.53;11.27;;;21.30;87.40;;;23.88;58.07;101473.97;5054554;28;20669;-59
2023/06/29 03:03:22;;;;;;;13.20;11.67;;;21.30;87.20;;;23.85;57.97;101474.44;5053753;28;20209;-59
2023/06/29 03:05:50;;;;;;;12.43;11.23;;;21.30;87.20;;;23.84;58.06;101475.53;5049109;28;20578;-55
2023/06/29 03:08:17;;;;;;;13.23;11.37;;;21.20;87.10;;;23.83;57.73;101476.56;5034053;28;20281;-58
2023/06/29 03:10:44;;;;;;;13.33;10.17;;;21.30;87.10;;;23.84;57.67;101462.06;5046470;28;20519;-59
2023/06/29 03:13:11;;;;;;;11.80;9.57;;;21.20;86.90;;;23.88;57.60;101468.59;5054119;28;20193;-59
2023/06/29 03:15:38;;;;;;;13.93;10.60;;;21.30;87.10;;;23.92;57.50;101469.72;5053812;28;20221;-59
2023/06/29 03:18:05;;;;;;;10.97;9.63;;;21.30;87.00;;;23.98;57.19;101466.06;5053789;28;20293;-58
2023/06/29 03:20:32;;;;;;;11.80;10.03;;;21.30;87.00;;;24.03;57.05;101471.50;5051689;28;20570;-60
2023/06/29 03:23:01;;;;;;;15.90;11.63;;;21.30;86.70;;;24.07;56.87;101475.38;5053575;28;20210;-59
2023/06/29 03:25:28;;;;;;;12.67;10.53;;;21.40;86.50;;;24.05;56.86;101464.03;5038906;28;20264;-57
2023/06/29 03:27:54;;;;;;;12.93;11.30;;;21.30;86.20;;;24.03;56.72;101466.13;5045919;28;20225;-58
2023/06/29 03:30:22;;;;;;;13.70;11.70;;;21.40;86.00;;;23.99;56.78;101467.69;5053499;28;20300;-59
2023/06/29 03:32:49;;;;;;;10.33;9.23;;;21.40;86.00;;;23.98;56.74;101463.38;5053376;28;20189;-57
2023/06/29 03:35:16;;;;;;;14.30;11.27;;;21.40;85.90;;;24.00;57.05;101458.56;5053126;28;20330;-60
2023/06/29 03:37:43;;;;;;;14.57;11.13;;;21.40;86.00;;;23.98;56.87;101466.06;5053574;28;20190;-57
2023/06/29 03:40:13;;;;;;;11.30;10.13;;;21.40;85.90;;;23.98;56.85;101463.38;5053675;28;20676;-57
2023/06/29 03:42:40;;;;;;;14.53;11.73;;;21.40;86.70;;;23.97;57.19;101461.72;5053596;28;20313;-56
2023/06/29 03:45:08;;;;;;;15.10;10.83;;;21.40;86.70;;;23.98;56.79;101463.38;5052664;28;20305;-60
2023/06/29 03:47:35;;;;;;;12.10;10.90;;;21.40;85.90;;;23.97;56.87;101458.22;5053799;28;20240;-57
2023/06/29 03:50:02;;;;;;;14.03;10.27;;;21.40;85.80;;;23.98;56.67;101458.00;5053381;28;20204;-59
2023/06/29 03:52:30;;;;;;;11.17;9.97;;;21.40;85.80;;;24.03;56.60;101449.19;5053500;28;20186;-58
2023/06/29 03:54:57;;;;;;;13.60;11.73;;;21.40;85.70;;;24.00;56.37;101455.88;5038252;28;20253;-58
2023/06/29 03:57:26;;;;;;;12.30;9.83;;;21.40;85.70;;;24.00;56.85;101450.50;5039069;28;20293;-59
2023/06/29 03:59:53;;;;;;;14.03;11.20;;;21.40;85.70;;;24.01;56.53;101452.09;5053273;28;20280;-60
2023/06/29 04:02:19;;;;;;;13.07;10.73;;;21.40;85.60;;;24.02;56.33;101448.38;5053346;28;20292;-59
2023/06/29 04:04:47;;;;;;;12.90;9.77;;;21.40;85.50;;;24.08;56.56;101452.78;5052027;28;20627;-59
2023/06/29 04:07:14;;;;;;;14.00;10.80;;;21.40;85.40;;;24.09;56.54;101450.91;5052498;28;20277;-58
2023/06/29 04:09:41;;;;;;;12.70;9.93;;;21.40;85.40;;;24.09;56.06;101449.03;5053327;28;20217;-59
2023/06/29 04:12:08;;;;;;;11.73;10.30;;;21.40;85.10;;;24.12;55.85;101448.56;5053272;28;20205;-59
2023/06/29 04:14:37;;;;;;;15.67;10.80;;;21.50;85.20;;;24.15;55.74;101445.34;5047454;28;20194;-59
2023/06/29 04:17:04;;;;;;;13.50;10.90;;;21.40;85.00;;;24.17;55.68;101456.72;5052866;28;20280;-57
2023/06/29 04:19:31;;;;;;;14.77;11.97;;;21.40;85.00;;;24.14;55.94;101451.00;5053209;28;20186;-57
2023/06/29 04:21:58;;;;;;;15.80;11.57;;;21.40;84.80;;;24.10;55.74;101445.28;5036571;28;20305;-57
2023/06/29 04:24:25;;;;;;;13.97;10.73;;;21.40;84.80;;;24.08;55.70;101450.09;5042682;28;20293;-57
2023/06/29 04:26:52;;;;;;;13.60;10.60;;;21.40;84.80;;;24.08;56.53;101442.00;5052470;28;20620;-57
2023/06/29 04:29:18;;;;;;;15.73;12.10;;;21.40;85.00;;;24.08;55.69;101450.09;5053111;28;20527;-59
2023/06/29 04:31:47;;;;;;;15.63;11.43;;;21.40;84.90;;;24.04;55.93;101448.09;5052888;28;20269;-58
2023/06/29 04:34:17;;;;;;;13.20;9.97;;;21.40;84.90;;;24.05;56.44;101447.88;5051771;28;20667;-58
2023/06/29 04:36:46;;;;;;;12.90;10.53;;;21.40;84.80;;;24.06;55.97;101446.84;5053033;28;20241;-57
2023/06/29 04:39:14;;;;;;;14.07;10.47;;;21.40;84.80;;;24.07;55.99;101444.97;5053234;28;20194;-58
2023/06/29 04:41:41;;;;;;;13.33;10.80;;;21.40;84.80;;;24.10;56.30;101442.59;5055410;28;20193;-59
2023/06/29 04:44:09;;;;;;;12.17;9.30;;;21.50;84.90;;;24.13;55.92;101444.78;5049101;28;20205;-59
2023/06/29 04:46:40;;;;;;;12.87;9.40;;;21.50;84.70;;;24.19;55.48;101443.81;5036608;28;20210;-56
2023/06/29 04:49:09;;;;;;;13.87;10.50;;;21.50;84.60;;;24.26;55.45;101446.31;5036802;28;20694;-60
2023/06/29 04:51:37;;;;;;;16.37;10.70;;;21.50;84.60;;;24.31;54.99;101437.50;5036515;28;20679;-58
2023/06/29 04:54:07;;;;;;;12.60;10.70;;;21.50;84.30;;;24.35;55.16;101447.53;5042570;28;20210;-60
2023/06/29 04:56:35;;;;;;;11.30;9.20;;;21.60;84.10;;;24.35;55.44;101441.31;5056018;28;20244;-58
2023/06/29 04:59:02;;;;;;;15.30;10.93;;;21.60;83.80;;;24.36;54.98;101438.41;5056382;28;20194;-60
2023/06/29 05:01:29;;;;;;;15.53;11.33;;;21.60;83.60;;;24.34;54.78;101439.72;5056013;28;20206;-59
2023/06/29 05:03:56;;;;;;;12.20;10.93;;;21.70;83.60;;;24.34;54.51;101445.09;5054900;28;20205;-59
2023/06/29 05:06:25;;;;;;;15.17;11.30;;;21.60;83.50;;;24.33;54.59;101438.91;5056186;28;20214;-58
2023/06/29 05:08:53;;;;;;;16.50;10.40;;;21.70;83.50;;;24.37;54.84;101444.56;5056121;28;20218;-58
2023/06/29 05:11:20;;;;;;;17.43;10.73;;;21.70;83.40;;;24.39;54.60;101437.88;5055874;28;20284;-60
2023/06/29 05:13:46;;;;;;;14.10;10.13;;;21.70;83.40;;;24.43;54.51;101439.03;5050858;28;20190;-60
2023/06/29 05:16:14;;;;;;;13.03;11.27;;;21.70;83.40;;;24.47;54.58;101433.94;5054891;28;20745;-59
2023/06/29 05:18:41;;;;;;;13.80;9.33;;;21.70;84.20;;;24.49;54.75;101434.50;5035954;28;20196;-59
2023/06/29 05:21:08;;;;;;;15.27;10.50;;;21.80;83.50;;;24.54;54.28;101434.59;5036318;28;20272;-60
2023/06/29 05:23:36;;;;;;;16.00;11.67;;;21.80;83.30;;;24.53;54.05;101433.75;5036920;28;20210;-59
2023/06/29 05:26:03;;;;;;;15.50;11.93;;;21.80;83.10;;;24.50;54.05;101426.22;5055934;28;20297;-60
2023/06/29 05:28:31;;;;;;;14.37;10.53;;;21.80;83.10;;;24.49;54.76;101427.25;5054916;28;20272;-59
2023/06/29 05:30:58;;;;;;;19.53;11.67;;;21.80;83.10;;;24.54;54.58;101423.81;5055512;28;20292;-58
2023/06/29 05:33:25;;;;;;;14.33;10.93;;;21.80;83.20;;;24.59;54.54;101426.56;5054883;28;20228;-63
2023/06/29 05:35:52;;;;;;;14.50;11.40;;;21.80;83.10;;;24.65;53.89;101421.00;5035945;28;20222;-58
2023/06/29 05:38:19;;;;;;;14.33;10.53;;;21.90;83.20;;;24.72;53.92;101415.44;5035293;28;20222;-60
2023/06/29 05:40:48;;;;;;;14.77;11.00;;;21.90;83.10;;;24.75;53.76;101420.31;5042658;28;20201;-61
2023/06/29 05:43:15;;;;;;;15.20;10.53;;;22.00;82.90;;;24.76;53.77;101412.03;5055108;28;20248;-59
2023/06/29 05:45:42;;;;;;;12.83;10.93;;;22.00;82.50;;;24.77;54.17;101418.22;5055093;28;20608;-58
2023/06/29 05:48:09;;;;;;;14.47;10.63;;;22.00;82.40;;;24.77;54.09;101412.84;5055057;28;20254;-59
2023/06/29 05:50:36;;;;;;;14.43;10.37;;;22.00;82.20;;;24.75;53.83;101412.22;5051899;28;20238;-59
2023/06/29 05:53:04;;;;;;;15.90;11.20;;;22.10;82.30;;;24.75;53.89;101410.34;5034297;28;20652;-60
2023/06/29 05:55:31;;;;;;;13.77;11.53;;;22.00;82.10;;;24.78;53.75;101406.38;5035144;28;20301;-59
2023/06/29 05:58:00;;;;;;;13.40;11.97;;;22.10;82.20;;;24.80;53.90;101413.16;5044787;28;20674;-61
2023/06/29 06:00:27;;;;;;;15.03;11.43;;;22.10;83.00;;;24.83;53.97;101411.81;5054109;28;20194;-59
2023/06/29 06:02:54;;;;;;;14.47;11.07;;;22.10;82.20;;;24.88;53.65;101406.50;5054641;28;20309;-60
2023/06/29 06:05:21;;;;;;;18.00;11.87;;;22.10;81.90;;;24.90;53.28;101409.75;5054952;28;20202;-59
2023/06/29 06:07:48;;;;;;;16.30;11.33;;;22.10;82.00;;;24.92;53.00;101404.91;5054393;28;20284;-59
2023/06/29 06:10:15;;;;;;;15.07;12.03;;;22.10;81.90;;;24.93;53.31;101400.34;5045565;28;20221;-61
2023/06/29 06:12:42;;;;;;;14.17;10.73;;;22.20;82.00;;;24.96;53.17;101395.25;5037400;28;20206;-61
2023/06/29 06:15:13;;;;;;;15.23;11.40;;;22.20;82.00;;;25.03;53.26;101406.66;5042941;28;20310;-60
2023/06/29 06:17:41;;;;;;;17.53;12.93;;;22.20;82.00;;;25.08;53.52;101398.63;5034364;28;20195;-62
2023/06/29 06:20:09;;;;;;;16.20;11.83;;;22.30;81.70;;;25.03;52.75;101398.56;5034260;28;20248;-60
2023/06/29 06:22:36;;;;;;;16.27;12.17;;;22.30;81.40;;;24.93;53.33;101390.41;5034890;28;20301;-61
2023/06/29 06:25:04;;;;;;;14.27;11.20;;;22.30;81.60;;;24.99;53.49;101405.53;5033942;28;20218;-61
2023/06/29 06:27:31;;;;;;;18.93;12.97;;;22.30;81.40;;;25.03;53.38;101401.25;5043034;28;20208;-60
2023/06/29 06:29:58;;;;;;;14.27;12.53;;;22.30;81.20;;;25.13;52.75;101401.38;5054327;28;20659;-58
2023/06/29 06:32:27;;;;;;;13.40;11.07;;;22.40;81.30;;;25.23;53.26;101403.34;5053176;28;20202;-62
2023/06/29 06:34:54;;;;;;;16.47;12.90;;;22.40;81.40;;;25.27;52.02;101402.59;5053698;28;20210;-60
2023/06/29 06:37:21;;;;;;;16.03;12.77;;;22.50;80.70;;;25.30;52.22;101402.09;5054294;28;20726;-59
2023/06/29 06:39:48;;;;;;;16.50;11.00;;;22.50;80.60;;;25.40;52.36;101402.19;5053824;28;20320;-63
2023/06/29 06:42:15;;;;;;;16.17;12.97;;;22.60;80.60;;;25.52;51.84;101394.78;5053582;28;20591;-60
2023/06/29 06:44:50;;;;;;;15.80;11.50;;;22.60;80.40;;;25.61;51.50;101396.97;5052590;28;20661;-60
2023/06/29 06:47:18;;;;;;;16.03;12.10;;;22.70;80.20;;;25.66;51.14;101397.03;5054024;28;20239;-60
2023/06/29 06:49:47;;;;;;;17.73;11.77;;;22.80;79.70;;;25.70;50.91;101400.84;5054009;28;20584;-60
2023/06/29 06:52:14;;;;;;;15.60;11.50;;;22.80;79.40;;;25.74;51.11;101407.34;5037925;28;20229;-60
2023/06/29 06:54:41;;;;;;;18.30;11.57;;;22.90;79.40;;;25.82;51.12;101396.06;5033527;28;20691;-58
2023/06/29 06:57:08;;;;;;;16.77;11.90;;;22.90;80.00;;;25.85;51.28;101399.06;5037560;28;20704;-59
2023/06/29 06:59:35;;;;;;;12.57;10.00;;;23.00;79.10;;;25.92;51.22;101396.13;5053218;28;20244;-61
2023/06/29 07:02:03;;;;;;;13.63;10.77;;;23.00;79.20;;;25.98;50.86;101403.22;5065024;28;20282;-59
2023/06/29 07:04:30;;;;;;;15.57;11.00;;;23.00;79.00;;;26.00;50.83;101396.47;5046420;28;20217;-59
2023/06/29 07:06:58;;;;;;;13.67;11.60;;;23.10;78.70;;;25.96;50.20;101399.97;5033941;28;20198;-59
2023/06/29 07:09:25;;;;;;;16.27;11.87;;;23.10;78.40;;;25.92;50.59;101399.66;5034994;28;20235;-60
2023/06/29 07:11:52;;;;;;;17.03;11.80;;;23.10;78.30;;;25.87;51.05;101405.00;5053274;28;20269;-59
2023/06/29 07:14:21;;;;;;;15.70;13.83;;;23.10;78.50;;;25.80;51.38;101400.91;5053293;28;20186;-60
2023/06/29 07:16:48;;;;;;;13.53;11.53;;;23.10;78.40;;;25.85;51.39;101398.25;5053616;28;20336;-61
2023/06/29 07:19:15;;;;;;;15.00;11.23;;;23.10;78.60;;;25.85;50.65;101395.53;5053295;28;20224;-60
2023/06/29 07:21:45;;;;;;;18.73;12.97;;;23.10;78.20;;;25.86;50.68;101397.19;5053131;28;20285;-62
2023/06/29 07:24:33;;;;;;;13.40;10.27;;;23.10;77.50;;;25.87;50.14;101390.69;5052803;28;20228;-60
2023/06/29 07:27:00;;;;;;;12.43;11.23;;;23.20;77.60;;;25.91;49.83;101397.22;5052405;28;20257;-61
2023/06/29 07:29:30;;;;;;;14.10;11.30;;;23.20;77.40;;;25.92;50.00;101388.03;5053234;28;20248;-60
2023/06/29 07:31:57;;;;;;;14.13;12.40;;;23.20;77.40;;;25.96;50.32;101389.94;5052982;28;20224;-59
2023/06/29 07:34:24;;;;;;;16.87;11.57;;;23.20;77.20;;;25.96;49.66;101383.75;5052918;28;20659;-59
2023/06/29 07:36:51;;;;;;;17.67;10.87;;;23.20;77.00;;;26.01;50.41;101386.47;5052773;28;20190;-59
2023/06/29 07:39:18;;;;;;;14.80;11.67;;;23.30;77.40;;;26.08;50.19;101381.66;5053265;28;20200;-62
2023/06/29 07:41:48;;;;;;;13.60;11.90;;;23.30;76.90;;;26.09;49.12;101373.31;5052862;28;20251;-64
2023/06/29 07:44:15;;;;;;;14.37;10.87;;;23.30;76.20;;;26.14;49.44;101365.28;5052727;28;20206;-59
2023/06/29 07:46:42;;;;;;;16.20;10.80;;;23.40;76.50;;;26.25;49.18;101363.44;5052979;28;20300;-62
2023/06/29 07:49:09;;;;;;;17.30;12.67;;;23.50;76.70;;;26.28;49.04;101360.22;5051688;28;20228;-58
2023/06/29 07:51:36;;;;;;;16.70;12.30;;;23.50;76.20;;;26.30;48.76;101358.06;5051030;28;20537;-56
2023/06/29 07:54:04;;;;;;;13.57;10.50;;;23.60;76.30;;;26.43;48.87;101357.59;5051731;28;20197;-55
2023/06/29 07:56:32;;;;;;;13.80;11.20;;;23.60;76.50;;;26.59;48.61;101361.97;5052574;28;20301;-58
2023/06/29 07:59:03;;;;;;;12.40;10.03;;;23.70;76.20;;;26.72;48.48;101363.34;5052654;28;20730;-56
2023/06/29 08:01:30;;;;;;;19.37;12.90;;;23.80;75.80;;;26.83;47.48;101352.34;5036627;28;20210;-58
2023/06/29 08:03:57;;;;;;;17.00;11.87;;;23.90;74.90;;;26.88;47.53;101354.22;5036703;28;20781;-58
2023/06/29 08:06:33;;;;;;;17.47;12.17;;;24.00;74.70;;;26.95;47.69;101351.25;5040035;28;20218;-59
2023/06/29 08:09:03;;;;;;;13.43;12.03;;;24.00;74.40;;;27.05;47.70;101348.59;5038774;28;20236;-55
2023/06/29 08:11:31;;;;;;;16.83;11.30;;;24.10;74.30;;;27.14;47.28;101352.38;5034033;28;20204;-58
2023/06/29 08:13:58;;;;;;;13.87;11.63;;;24.20;74.40;;;27.25;47.34;101359.41;5040528;28;20286;-56
2023/06/29 08:16:26;;;;;;;15.20;13.53;;;24.30;74.20;;;27.34;46.66;101357.78;5042487;28;20569;-57
2023/06/29 08:18:53;;;;;;;14.73;12.83;;;24.30;73.30;;;27.38;46.72;101351.63;5045358;28;20672;-58
2023/06/29 08:21:21;;;;;;;15.33;11.73;;;24.40;73.40;;;27.47;46.69;101343.75;5044676;28;20340;-57
2023/06/29 08:23:49;;;;;;;13.80;9.93;;;24.40;73.40;;;27.59;46.72;101348.88;5040319;28;20895;-59
2023/06/29 08:26:17;;;;;;;15.60;12.50;;;24.60;73.70;;;27.64;46.30;101341.59;5044851;28;20256;-57
2023/06/29 08:28:44;;;;;;;14.60;11.60;;;24.60;72.70;;;27.64;46.13;101352.41;5046416;28;20609;-57
2023/06/29 08:31:12;;;;;;;17.70;12.57;;;24.60;72.60;;;27.55;45.75;101342.41;5041698;28;20214;-56
2023/06/29 08:33:41;;;;;;;16.07;13.20;;;24.70;71.70;;;27.48;46.06;101343.47;5044383;28;20650;-58
2023/06/29 08:36:08;;;;;;;15.97;13.03;;;24.70;71.70;;;27.43;46.04;101350.81;5041751;28;20218;-58
2023/06/29 08:38:35;;;;;;;15.80;11.43;;;24.70;71.50;;;27.44;46.22;101344.28;5044654;28;20220;-59
2023/06/29 08:41:05;;;;;;;13.23;11.40;;;24.70;71.60;;;27.47;46.33;101346.47;5043193;28;20209;-59
2023/06/29 08:43:32;;;;;;;17.60;13.20;;;24.70;71.70;;;27.50;45.77;101351.34;5040499;28;20659;-56
2023/06/29 08:46:01;;;;;;;15.67;12.30;;;24.70;71.40;;;27.51;45.95;101352.94;5044116;28;20215;-58
2023/06/29 08:48:31;;;;;;;19.47;13.83;;;24.70;71.60;;;27.40;45.67;101351.34;5046158;28;20209;-57
2023/06/29 08:51:03;;;;;;;15.63;13.73;;;24.70;71.10;;;27.33;45.78;101345.34;5043200;28;20199;-58
2023/06/29 08:53:30;;;;;;;14.07;12.13;;;24.70;71.10;;;27.28;46.13;101351.56;5045835;28;20216;-55
2023/06/29 08:55:59;;;;;;;18.97;13.10;;;24.70;71.10;;;27.27;46.32;101346.41;5041284;28;20558;-58
2023/06/29 08:58:26;;;;;;;19.53;13.10;;;24.60;71.30;;;27.28;46.51;101356.16;5036084;28;20217;-59
2023/06/29 09:00:54;;;;;;;18.17;11.77;;;24.70;71.60;;;27.26;46.07;101344.81;5041935;28;20210;-54
2023/06/29 09:03:23;;;;;;;15.30;11.63;;;24.70;71.50;;;27.29;46.08;101341.56;5040978;28;20203;-57
2023/06/29 09:05:54;;;;;;;19.03;12.90;;;24.60;71.30;;;27.26;45.84;101344.81;5039695;28;20209;-58
2023/06/29 09:08:23;;;;;;;14.83;11.20;;;24.60;71.20;;;27.29;45.97;101344.28;5041215;28;20202;-59
2023/06/29 09:10:50;;;;;;;14.00;12.07;;;24.60;71.40;;;27.23;45.98;101334.53;5044760;28;20567;-59
2023/06/29 09:13:18;;;;;;;17.47;12.23;;;24.60;70.70;;;27.16;45.69;101336.69;5042451;28;20202;-61
2023/06/29 09:15:48;;;;;;;14.77;12.60;;;24.60;70.30;;;27.18;45.73;101342.63;5039789;28;20271;-61
2023/06/29 09:18:15;;;;;;;14.57;11.57;;;24.60;70.10;;;27.15;45.46;101333.16;5039765;28;20675;-62
2023/06/29 09:20:43;;;;;;;15.07;11.20;;;24.60;70.30;;;27.20;46.00;101341.28;5035705;28;20272;-61
2023/06/29 09:23:13;;;;;;;16.80;11.70;;;24.60;70.50;;;27.24;46.04;101336.16;5039599;28;20267;-60
2023/06/29 09:25:41;;;;;;;16.00;11.07;;;24.60;70.70;;;27.30;46.00;101340.47;5039446;28;20228;-63
2023/06/29 09:28:09;;;;;;;13.63;12.10;;;24.60;71.10;;;27.30;45.79;101335.88;5040253;28;20238;-61
2023/06/29 09:30:38;;;;;;;17.40;12.70;;;24.60;71.10;;;27.30;46.12;101340.47;5040242;28;20193;-62
2023/06/29 09:33:07;;;;;;;14.33;12.10;;;24.60;71.30;;;27.27;46.42;101338.31;5041366;28;20202;-62
2023/06/29 09:35:37;;;;;;;12.53;10.73;;;24.70;71.50;;;27.27;46.73;101341.00;5041133;28;20224;-62
2023/06/29 09:38:04;;;;;;;13.10;10.50;;;24.60;71.60;;;27.33;46.55;101342.66;5039938;28;20296;-62
2023/06/29 09:40:31;;;;;;;17.77;12.10;;;24.60;71.90;;;27.33;46.68;101339.94;5039032;28;20230;-62
2023/06/29 09:43:03;;;;;;;15.67;11.60;;;24.60;72.10;;;27.33;46.53;101331.84;5037871;28;20305;-61
2023/06/29 09:45:31;;;;;;;18.23;13.40;;;24.70;72.00;;;27.33;46.58;101329.13;5040733;28;20228;-62
2023/06/29 09:47:58;;;;;;;15.13;12.07;;;24.70;71.60;;;27.27;46.55;101335.59;5039418;28;20313;-61
2023/06/29 09:50:28;;;;;;;13.33;12.03;;;24.70;71.70;;;27.31;46.56;101336.69;5038835;28;20261;-59
2023/06/29 09:52:56;;;;;;;15.90;11.80;;;24.70;71.80;;;27.34;46.62;101331.56;5039062;28;20210;-63
2023/06/29 09:55:30;;;;;;;12.73;10.30;;;24.70;71.90;;;27.37;46.59;101335.59;5040764;28;20296;-63
2023/06/29 09:57:58;;;;;;;15.53;13.47;;;24.70;72.00;;;27.36;46.18;101334.78;5039324;28;20204;-62
2023/06/29 10:00:27;;;;;;;14.80;12.77;;;24.70;71.60;;;27.36;46.35;101329.38;5039482;28;20872;-61
2023/06/29 10:02:55;;;;;;;16.73;13.00;;;24.70;71.70;;;27.45;46.19;101344.03;5038998;28;20281;-63